This is the latest recevied weather packets stored in our database for station/object DC1MAK-13. If no packets are shown the sender has not sent any weather packets the latest 10 day(s).
| Time | Temp. | Humidity | Pressure | Rain* | Wind** | Luminosity | Snow |
|---|---|---|---|---|---|---|---|
| 1787510835 | 16.67° C | 68% | 991.8 hPa | - | - | - | - |
| 1787510531 | 16.67° C | 68% | 991.8 hPa | - | - | - | - |
| 1787509927 | 17.22° C | 65% | 991.7 hPa | - | - | - | - |
| 1787509918 | 17.22° C | 65% | 991.7 hPa | - | - | - | - |
| 1787509621 | 17.78° C | 63% | 991.7 hPa | - | - | - | - |
| 1787509317 | 18.33° C | 60% | 991.7 hPa | - | - | - | - |
| 1787509014 | 18.33° C | 58% | 991.7 hPa | - | - | - | - |
| 1787508710 | 18.89° C | 56% | 991.7 hPa | - | - | - | - |
| 1787508704 | 18.89° C | 56% | 991.7 hPa | - | - | - | - |
| 1787508401 | 18.89° C | 54% | 991.5 hPa | - | - | - | - |
| 1787508107 | 19.44° C | 52% | 991.6 hPa | - | - | - | - |
| 1787508097 | 19.44° C | 52% | 991.6 hPa | - | - | - | - |
| 1787507800 | 19.44° C | 49% | 991.5 hPa | - | - | - | - |
| 1787507794 | 19.44° C | 49% | 991.5 hPa | - | - | - | - |
| 1787507497 | 19.44° C | 48% | 991.5 hPa | - | - | - | - |
| 1787507193 | 20° C | 47% | 991.5 hPa | - | - | - | - |
| 1787506587 | 21.11° C | 43% | 991.6 hPa | - | - | - | - |
| 1787506580 | 21.11° C | 43% | 991.6 hPa | - | - | - | - |
| 1787506287 | 21.67° C | 43% | 991.5 hPa | - | - | - | - |
| 1787505979 | 21.67° C | 42% | 991.5 hPa | - | - | - | - |
| 1787505676 | 22.22° C | 41% | 991.4 hPa | - | - | - | - |
| 1787505372 | 22.78° C | 38% | 991.5 hPa | - | - | - | - |
| 1787504767 | 28.89° C | 28% | 991.6 hPa | - | - | - | - |
| 1787504467 | 28.89° C | 30% | 991.6 hPa | - | - | - | - |
| 1787504456 | 28.89° C | 30% | 991.6 hPa | - | - | - | - |
* Rain since midnight (hover to see other rain measurements)
** Current wind speed in m/s (hover to see current wind gust speed)